Celestyal Crystal — 9HA2978 — position and weather

sailwx.info

Track history (hours):
 
Tides and Currents Weather Stations Pressure Air Temp Water Temp Dewpoint Dewpoint Depression Visibility Wind Speed Wind Dir Waves Ship Positions

Celestyal Crystal

Last reported at 2016-Nov-06 15:34 UTC. Time now 2016-Dec-05 10:37 UTC.
Position N 27°59' W 015°19'.
Warning: this ship's position is 28 days out of date.

Length 162 m; draft 6.1 m.

Type: Passenger vessel. MMSI: 229001000.

Date/timePositionNaut miles runAvg speedWind from/ knotsBaromVisibWave heightAir tempDewpointWater temp
2016-Nov-06 15:34N 27°59' W 015°19'10 4.8
2016-Nov-06 13:25N 28°08' W 015°25'0 0.0
2016-Nov-06 12:25N 28°08' W 015°25'0 0.0
2016-Nov-06 11:28N 28°08' W 015°25'0 0.0
2016-Nov-06 10:28N 28°08' W 015°25'0 0.0
2016-Nov-06 08:31N 28°08' W 015°25'0 0.0
2016-Nov-06 07:31N 28°08' W 015°25'68513.9
2016-Nov-04 06:22N 35°58' W 005°36'  
2016-Nov-01 20:22N 43°12' E 006°58'1417.0
2016-Nov-01 19:33N 43°21' E 007°13'9813.9
2016-Nov-01 12:32N 44°25' E 008°55'26 2.9
2016-Nov-01 03:34N 44°05' E 008°31'1211.3
2016-Nov-01 02:31N 43°58' E 008°18'2511.2
2016-Nov-01 00:15N 43°46' E 007°47'911.7
2016-Oct-31 23:31N 43°43' E 007°35'1212.2
2016-Oct-31 22:34N 43°40' E 007°20'3 1.5
2016-Oct-31 20:31N 43°42' E 007°17'0 0.0
2016-Oct-31 19:31N 43°42' E 007°17'0 0.0
2016-Oct-31 18:31N 43°42' E 007°17'0 0.0
2016-Oct-31 13:31N 43°42' E 007°17'0 0.0
2016-Oct-31 12:31N 43°42' E 007°17'1 0.4
2016-Oct-31 10:33N 43°41' E 007°17'1514.6
2016-Oct-31 09:33N 43°28' E 007°08'3213.5
2016-Oct-31 07:10N 43°03' E 006°40'223 7.7
2016-Oct-30 02:10N 41°22' E 002°11'0 0.0
2016-Oct-30 00:16N 41°22' E 002°11'0 0.0
2016-Oct-29 18:22N 41°22' E 002°11'0 0.0
2016-Oct-29 16:22N 41°22' E 002°11'0 0.0
2016-Oct-29 14:28N 41°22' E 002°11'  
Track history (hours):
 
Tides and Currents Weather Stations Pressure Air Temp Water Temp Dewpoint Dewpoint Depression Visibility Wind Speed Wind Dir Waves Ship Positions

Celestyal Crystal

Last reported at 2016-Nov-06 15:34 UTC. Time now 2016-Dec-05 10:37 UTC.
Position N 27°59' W 015°19'.
Warning: this ship's position is 28 days out of date.

Length 162 m; draft 6.1 m.

Type: Passenger vessel. MMSI: 229001000.

Date/timePositionNaut miles runAvg speedWind from/ knotsBaromVisibWave heightAir tempDewpointWater temp
2016-Nov-06 15:34N 27°59' W 015°19'10 4.8
2016-Nov-06 13:25N 28°08' W 015°25'0 0.0
2016-Nov-06 12:25N 28°08' W 015°25'0 0.0
2016-Nov-06 11:28N 28°08' W 015°25'0 0.0
2016-Nov-06 10:28N 28°08' W 015°25'0 0.0
2016-Nov-06 08:31N 28°08' W 015°25'0 0.0
2016-Nov-06 07:31N 28°08' W 015°25'68513.9
2016-Nov-04 06:22N 35°58' W 005°36'  
2016-Nov-01 20:22N 43°12' E 006°58'1417.0
2016-Nov-01 19:33N 43°21' E 007°13'9813.9
2016-Nov-01 12:32N 44°25' E 008°55'26 2.9
2016-Nov-01 03:34N 44°05' E 008°31'1211.3
2016-Nov-01 02:31N 43°58' E 008°18'2511.2
2016-Nov-01 00:15N 43°46' E 007°47'911.7
2016-Oct-31 23:31N 43°43' E 007°35'1212.2
2016-Oct-31 22:34N 43°40' E 007°20'3 1.5
2016-Oct-31 20:31N 43°42' E 007°17'0 0.0
2016-Oct-31 19:31N 43°42' E 007°17'0 0.0
2016-Oct-31 18:31N 43°42' E 007°17'0 0.0
2016-Oct-31 13:31N 43°42' E 007°17'0 0.0
2016-Oct-31 12:31N 43°42' E 007°17'1 0.4
2016-Oct-31 10:33N 43°41' E 007°17'1514.6
2016-Oct-31 09:33N 43°28' E 007°08'3213.5
2016-Oct-31 07:10N 43°03' E 006°40'223 7.7
2016-Oct-30 02:10N 41°22' E 002°11'0 0.0
2016-Oct-30 00:16N 41°22' E 002°11'0 0.0
2016-Oct-29 18:22N 41°22' E 002°11'0 0.0
2016-Oct-29 16:22N 41°22' E 002°11'0 0.0
2016-Oct-29 14:28N 41°22' E 002°11'  

Dump ship's entire track history